Flight Track Log - Related Links

Times and Time Zones

All times are in EDT time to prevent confusion due to time zone crossing. See the VOZ989 flight status page for this flight to view local times or setup timezone preferences in your user account.

Time Position Orientation Groundspeed Altitude Reporting Facility
EDT Latitude Longitude Course Direction KTS MPH feet Rate Location/Type
Thu 06:05:02 AM -33.9700 151.1940 140° Southeast 135 155  Level FlightAware ADS-B
Thu 06:05:32 AM -33.9850 151.2080 142° Southeast 159 183 1,000 1,527 Climbing FlightAware ADS-B
Thu 06:05:57 AM -33.9940 151.2270 120° Southeast 182 209 1,400 1,200 Climbing FlightAware ADS-B
Thu 06:06:17 AM -34.0080 151.2450 133° Southeast 212 244 1,900 2,333 Climbing FlightAware ADS-B
Thu 06:06:33 AM -34.0254 151.2615 133° Southeast 223 257 2,800 2,160 Climbing Aus ATC (RADAR)
Thu 06:06:42 AM -34.0290 151.2660 133° Southeast 238 274 2,800 2,615 Level FlightAware ADS-B
Thu 06:07:12 AM -34.0550 151.2910 141° Southeast 240 276 4,500 3,333 Climbing FlightAware ADS-B
Thu 06:07:27 AM -34.0680 151.3050 138° Southeast 252 290 5,300 3,300 Climbing FlightAware ADS-B
Thu 06:07:52 AM -34.0870 151.3330 129° Southeast 265 305 6,700 3,300 Climbing FlightAware ADS-B
Thu 06:08:07 AM -34.0910 151.3550 102° East 269 310 7,500 3,833 Climbing FlightAware ADS-B
Thu 06:08:28 AM -34.0796 151.3908 102° East 282 325 9,000 2,600 Climbing Aus ATC (RADAR)
Thu 06:08:37 AM -34.0750 151.3960 102° East 295 339 8,800 -316 Descending FlightAware ADS-B
Thu 06:08:47 AM -34.0630 151.4050 32° Northeast 308 354 8,900 1,650 Climbing FlightAware ADS-B
Thu 06:09:17 AM -34.0170 151.4220 17° North 349 402 9,900 1,543 Climbing FlightAware ADS-B
Thu 06:09:57 AM -33.9570 151.4440 17° North 389 448 10,700 1,976 Climbing FlightAware ADS-B
Thu 06:10:42 AM -33.8840 151.4720 18° North 401 461 12,700 2,700 Climbing FlightAware ADS-B
Thu 06:11:17 AM -33.8220 151.4960 18° North 415 478 14,300 3,247 Climbing FlightAware ADS-B
Thu 06:12:07 AM -33.7160 151.5360 17° North 423 487 17,300 3,630 Climbing FlightAware ADS-B
Thu 06:12:38 AM -33.6473 151.5622 17° North 437 503 19,200 1,800 Climbing Aus ATC (RADAR)
Thu 06:12:47 AM -33.6600 151.5570 17° North 436 502 18,500 2,082 Descending FlightAware ADS-B
Thu 06:13:27 AM -33.5690 151.5920 18° North 448 516 20,900 3,450 Climbing FlightAware ADS-B
Thu 06:14:07 AM -33.4740 151.6270 17° North 436 502 23,100 4,033 Climbing FlightAware ADS-B
Thu 06:14:28 AM -33.4312 151.6434 17° North 443 510 25,000 3,200 Climbing Aus ATC (RADAR)
Thu 06:14:52 AM -33.3890 151.6590 17° North 424 488 25,500 1,969 Climbing FlightAware ADS-B
Thu 06:15:32 AM -33.3120 151.6880 17° North 434 499 27,100 2,545 Climbing FlightAware ADS-B
Thu 06:15:58 AM -33.2592 151.7076 17° North 436 502 28,300 1,867 Climbing Aus ATC (RADAR)
Thu 06:16:17 AM -33.2260 151.7200 17° North 440 506 28,500 2,118 Climbing FlightAware ADS-B
Thu 06:16:32 AM -33.1910 151.7331 17° North 441 507 29,500 1,950 Climbing Aus ATC (RADAR)
Thu 06:16:57 AM -33.1460 151.7500 17° North 439 505 29,800 1,200 Climbing FlightAware ADS-B
Thu 06:17:42 AM -33.0590 151.7820 17° North 454 522 30,900 1,900 Climbing FlightAware ADS-B
Thu 06:17:57 AM -33.0220 151.7957 17° North 454 522 31,700 2,229 Climbing Aus ATC (RADAR)
Thu 06:18:17 AM -32.9824 151.8112 18° North 454 522 32,200 960 Climbing Aus ATC (RADAR)
Thu 06:18:22 AM -32.9750 151.8130 18° North 458 527 32,100 3,400 Descending FlightAware ADS-B
Thu 06:18:47 AM -32.9214 151.8333 18° North 455 524 33,900 3,200 Climbing Aus ATC (RADAR)
Thu 06:19:07 AM -32.8870 151.8460 18° North 420 483 34,500 1,500 Climbing FlightAware ADS-B
Thu 06:19:47 AM -32.8110 151.8740 17° North 420 483 35,400 1,378 Climbing FlightAware ADS-B
Thu 06:20:21 AM -32.7424 151.8999 17° North 428 493 36,200 600 Climbing Aus ATC (RADAR)
Thu 06:20:27 AM -32.7360 151.9020 17° North 440 506 35,800  Descending FlightAware ADS-B
Thu 06:21:12 AM -32.6470 151.9350 17° North 456 525 36,200 975 Climbing FlightAware ADS-B
Thu 06:21:47 AM -32.5714 151.9629 17° North 459 528 37,100 750 Climbing Aus ATC (RADAR)
Thu 06:21:52 AM -32.5650 151.9650 17° North 456 525 36,700 720 Descending FlightAware ADS-B
Thu 06:22:37 AM -32.4740 151.9980 17° North 453 521 37,700 1,700 Climbing FlightAware ADS-B
Thu 06:22:52 AM -32.4385 152.0113 17° North 461 531 38,400 1,800 Climbing Aus ATC (RADAR)
Thu 06:23:07 AM -32.4079 152.0224 17° North 460 529 38,600 -240 Climbing Aus ATC (RADAR)
Thu 06:23:17 AM -32.3910 152.0290 17° North 456 525 38,300 343 Descending FlightAware ADS-B
Thu 06:23:42 AM -32.3360 152.0488 17° North 463 533 38,800 300 Climbing Aus ATC (RADAR)
Thu 06:23:57 AM -32.3070 152.0590 17° North 473 544 38,500 655 Descending FlightAware ADS-B
Thu 06:24:37 AM -32.2215 152.0909 17° North 467 537 39,400 750 Climbing Aus ATC (RADAR)
Thu 06:24:37 AM -32.2280 152.0880 17° North 455 524 39,000  Descending FlightAware ADS-B
Thu 06:25:12 AM -32.1514 152.1163 17° North 452 520 39,400  Climbing Aus ATC (RADAR)
Thu 06:25:22 AM -32.1350 152.1220 17° North 453 521 39,000 -764 Descending FlightAware ADS-B
Thu 06:26:07 AM -32.0470 152.1540 17° North 456 525 38,700 -353 Descending FlightAware ADS-B
Thu 06:26:47 AM -31.9630 152.1840 17° North 455 524 38,500 -379 Descending FlightAware ADS-B
Thu 06:27:42 AM -31.8610 152.2210 17° North 457 526 38,100 -225 Descending FlightAware ADS-B
Thu 06:28:07 AM -31.7988 152.2440 17° North 455 524 38,200 -450 Climbing Aus ATC (RADAR)
Thu 06:28:22 AM -31.7780 152.2510 17° North 460 529 37,800 -514 Descending FlightAware ADS-B
Thu 06:28:42 AM -31.7275 152.2695 17° North 458 527 37,900 -450 Climbing Aus ATC (RADAR)
Thu 06:29:02 AM -31.6950 152.2810 17° North 458 527 37,500 -444 Descending FlightAware ADS-B
Thu 06:29:36 AM -31.6167 152.3104 17° North 454 522 37,500 -514 Level Aus ATC (RADAR)
Thu 06:29:37 AM -31.6270 152.3060 17° North 453 521 37,200 -343 Descending FlightAware ADS-B
Thu 06:30:11 AM -31.5466 152.3354 17° North 452 520 37,300 -240 Climbing Aus ATC (RADAR)
Thu 06:30:27 AM -31.5270 152.3420 17° North 445 512 37,000  Descending FlightAware ADS-B
Thu 06:31:07 AM -31.4386 152.3733 17° North 439 505 37,300  Climbing Aus ATC (RADAR)
Thu 06:31:07 AM -31.4420 152.3720 17° North 441 507 37,000  Descending FlightAware ADS-B
Thu 06:31:26 AM -31.3998 152.3875 17° North 441 507 37,300  Climbing Aus ATC (RADAR)
Thu 06:31:57 AM -31.3610 152.4010 17° North 441 507 37,000 -254 Descending FlightAware ADS-B
Thu 06:32:37 AM -31.2720 152.4330 17° North 438 504 37,000  Level FlightAware ADS-B
Thu 06:33:12 AM -31.2060 152.4570 17° North 438 504 37,000 333 Level FlightAware ADS-B
Thu 06:33:31 AM -31.1563 152.4747 17° North 437 503 37,300 529 Climbing Aus ATC (RADAR)
Thu 06:33:46 AM -31.1273 152.4850 17° North 435 501 37,300 -692 Level Aus ATC (RADAR)
Thu 06:33:57 AM -31.1200 152.4870 17° North 440 506 37,000  Descending FlightAware ADS-B
Thu 06:34:41 AM -31.0201 152.5227 17° North 436 502 37,300  Climbing Aus ATC (RADAR)
Thu 06:34:52 AM -31.0120 152.5240 17° North 440 506 37,000 -353 Descending FlightAware ADS-B
Thu 06:35:32 AM -30.9460 152.5460 17° North 440 506 37,000 419 Level FlightAware ADS-B
Thu 06:35:35 AM -30.9140 152.5605 17° North 439 505 37,300  Climbing Aus ATC (RADAR)
Thu 06:36:22 AM -30.8630 152.5740 16° North 440 506 37,000 -207 Descending FlightAware ADS-B
Thu 06:37:02 AM -30.7960 152.5970 16° North 440 506 37,000  Level FlightAware ADS-B
Thu 06:37:57 AM -30.6530 152.6520 18° North 435 501 37,000 228 Level FlightAware ADS-B
Thu 06:38:21 AM -30.5949 152.6725 18° North 429 494 37,300 462 Climbing Aus ATC (RADAR)
Thu 06:38:36 AM -30.5662 152.6828 17° North 428 493 37,300 -1,125 Level Aus ATC (RADAR)
Thu 06:38:37 AM -30.5670 152.6820 17° North 432 497 37,000  Descending FlightAware ADS-B
Thu 06:39:11 AM -30.4987 152.7058 17° North 430 495 37,300  Climbing Aus ATC (RADAR)
Thu 06:39:22 AM -30.4800 152.7130 17° North 431 496 37,000 -391 Descending FlightAware ADS-B
Thu 06:39:57 AM -30.4210 152.7340 17° North 430 495 37,000 228 Level FlightAware ADS-B
Thu 06:40:41 AM -30.3269 152.7656 17° North 425 489 37,300  Climbing Aus ATC (RADAR)
Thu 06:40:47 AM -30.3210 152.7690 17° North 429 494 37,000 -391 Descending FlightAware ADS-B
Thu 06:41:27 AM -30.2400 152.7970 17° North 429 494 37,000 286 Level FlightAware ADS-B
Thu 06:41:50 AM -30.1943 152.8124 17° North 424 488 37,300  Climbing Aus ATC (RADAR)
Thu 06:42:07 AM -30.1670 152.8220 17° North 428 493 37,000  Descending FlightAware ADS-B
Thu 06:42:51 AM -30.0807 152.8520 17° North 423 487 37,300  Climbing Aus ATC (RADAR)
Thu 06:42:52 AM -30.0820 152.8520 17° North 427 491 37,000  Descending FlightAware ADS-B
Thu 06:43:25 AM -30.0140 152.8743 17° North 424 488 37,300  Climbing Aus ATC (RADAR)
Thu 06:43:37 AM -29.9950 152.8820 17° North 426 490 37,000  Descending FlightAware ADS-B
Thu 06:44:15 AM -29.9212 152.9085 17° North 418 481 37,300  Climbing Aus ATC (RADAR)
Thu 06:44:17 AM -29.9190 152.9080 17° North 423 487 37,000 -429 Descending FlightAware ADS-B
Thu 06:44:57 AM -29.8440 152.9340 17° North 422 486 37,000 250 Level FlightAware ADS-B
Thu 06:45:29 AM -29.7810 152.9557 17° North 421 484 37,300  Climbing Aus ATC (RADAR)
Thu 06:45:42 AM -29.7600 152.9630 17° North 422 486 37,000  Descending FlightAware ADS-B
Thu 06:46:04 AM -29.7161 152.9794 17° North 419 482 37,300  Climbing Aus ATC (RADAR)
Thu 06:46:22 AM -29.6840 152.9890 17° North 422 486 37,000  Descending FlightAware ADS-B
Thu 06:46:55 AM -29.6209 153.0109 17° North 418 481 37,300  Climbing Aus ATC (RADAR)
Thu 06:47:07 AM -29.6010 153.0180 17° North 423 487 37,000 -346 Descending FlightAware ADS-B
Thu 06:47:47 AM -29.5260 153.0440 17° North 423 487 37,000  Level FlightAware ADS-B
Thu 06:48:27 AM -29.4500 153.0700 17° North 423 487 37,000 269 Level FlightAware ADS-B
Thu 06:48:54 AM -29.3969 153.0891 17° North 421 484 37,300  Climbing Aus ATC (RADAR)
Thu 06:49:12 AM -29.3650 153.0990 17° North 422 486 37,000  Descending FlightAware ADS-B
Thu 06:49:29 AM -29.3314 153.1114 17° North 421 484 37,300  Climbing Aus ATC (RADAR)
Thu 06:49:47 AM -29.3010 153.1210 17° North 419 482 37,000  Descending FlightAware ADS-B
Thu 06:50:10 AM -29.2559 153.1351 17° North 415 478 37,300  Climbing Aus ATC (RADAR)
Thu 06:50:32 AM -29.2210 153.1490 17° North 414 476 37,000 -269 Descending FlightAware ADS-B
Thu 06:51:17 AM -29.1380 153.1770 16° North 410 472 37,000 247 Level FlightAware ADS-B
Thu 06:51:45 AM -29.0824 153.1935 16° North 407 468 37,300  Climbing Aus ATC (RADAR)
Thu 06:51:57 AM -29.0700 153.2000 16° North 402 463 37,000  Descending FlightAware ADS-B
Thu 06:52:20 AM -29.0192 153.2156 16° North 404 465 37,300  Climbing Aus ATC (RADAR)
Thu 06:52:42 AM -28.9850 153.2290 16° North 400 460 37,000 -290 Descending FlightAware ADS-B
Thu 06:53:22 AM -28.9130 153.2530 16° North 402 463 37,000  Level FlightAware ADS-B
Thu 06:54:07 AM -28.8320 153.2810 17° North 417 480 37,000  Level FlightAware ADS-B
Thu 06:54:47 AM -28.7600 153.3050 16° North 420 483 37,000 214 Level FlightAware ADS-B
Thu 06:55:03 AM -28.7176 153.3200 16° North 419 482 37,200 -1,050 Climbing Aus ATC (RADAR)
Thu 06:55:27 AM -28.6790 153.3320 16° North 405 466 36,300 -2,609 Descending FlightAware ADS-B
Thu 06:56:12 AM -28.6020 153.3580 17° North 418 481 34,200 -2,806 Descending FlightAware ADS-B
Thu 06:56:29 AM -28.5604 153.3722 17° North 406 467 33,400 -2,813 Descending Aus ATC (RADAR)
Thu 06:56:44 AM -28.5321 153.3817 16° North 408 470 32,700 -3,158 Descending Aus ATC (RADAR)
Thu 06:57:07 AM -28.4980 153.3940 16° North 417 480 31,400 -2,897 Descending FlightAware ADS-B
Thu 06:57:42 AM -28.4250 153.4190 17° North 416 479 29,900 -2,222 Descending FlightAware ADS-B
Thu 06:58:28 AM -28.3403 153.4483 17° North 401 461 28,400 -2,160 Descending Aus ATC (RADAR)
Thu 06:58:32 AM -28.3350 153.4490 17° North 390 449 28,100 -2,308 Descending FlightAware ADS-B
Thu 06:59:07 AM -28.2780 153.4680 16° North 374 430 26,900 -1,412 Descending FlightAware ADS-B
Thu 06:59:57 AM -28.1970 153.4940 16° North 340 391 26,100 -545 Descending FlightAware ADS-B
Thu 07:00:13 AM -28.1689 153.5038 16° North 352 405 26,300 -171 Climbing Aus ATC (RADAR)
Thu 07:00:32 AM -28.1470 153.5170 16° North 329 379 26,000 -462 Descending FlightAware ADS-B
Thu 07:00:52 AM -28.1280 153.5440 51° Northeast 340 391 26,000  Level FlightAware ADS-B
Thu 07:01:12 AM -28.1220 153.5770 78° East 350 403 26,000  Level FlightAware ADS-B
Thu 07:01:32 AM -28.1300 153.6130 104° East 352 405 26,000  Level FlightAware ADS-B
Thu 07:01:47 AM -28.1470 153.6350 131° Southeast 348 400 26,000  Level FlightAware ADS-B
Thu 07:02:02 AM -28.1650 153.6480 148° Southeast 341 392 26,000 439 Level FlightAware ADS-B
Thu 07:02:28 AM -28.2083 153.6528 148° Southeast 331 381 26,300  Climbing Aus ATC (RADAR)
Thu 07:02:37 AM -28.2190 153.6460 148° Southeast 315 362 26,000 -305 Descending FlightAware ADS-B
Thu 07:03:27 AM -28.2880 153.6210 198° South 310 357 26,000 91 Level FlightAware ADS-B
Thu 07:03:43 AM -28.3113 153.6138 198° South 312 359 26,100 -900 Climbing Aus ATC (RADAR)
Thu 07:04:07 AM -28.3420 153.6000 198° South 301 346 25,400 -1,538 Descending FlightAware ADS-B
Thu 07:04:22 AM -28.3570 153.5880 215° Southwest 288 331 25,100 -1,000 Descending FlightAware ADS-B
Thu 07:04:37 AM -28.3700 153.5700 231° Southwest 276 318 24,900 -960 Descending FlightAware ADS-B
Thu 07:04:47 AM -28.3750 153.5560 248° West 269 310 24,700 -1,050 Descending FlightAware ADS-B
Thu 07:05:17 AM -28.3710 153.5170 277° West 261 300 24,200 -933 Descending FlightAware ADS-B
Thu 07:05:32 AM -28.3610 153.5000 304° West 265 305 24,000 -960 Descending FlightAware ADS-B
Thu 07:05:42 AM -28.3520 153.4920 322° Northwest 271 312 23,800 -1,200 Descending FlightAware ADS-B
Thu 07:05:52 AM -28.3390 153.4850 335° Northwest 278 320 23,600 -1,000 Descending FlightAware ADS-B
Thu 07:06:12 AM -28.3110 153.4820 355° North 296 341 23,300 -923 Descending FlightAware ADS-B
Thu 07:06:57 AM -28.2520 153.4910 North 292 336 22,600 -738 Descending FlightAware ADS-B
Thu 07:07:17 AM -28.2212 153.4970 North 298 343 22,500 -1,200 Descending Aus ATC (RADAR)
Thu 07:07:37 AM -28.1970 153.4990 North 292 336 21,800 -1,600 Descending FlightAware ADS-B
Thu 07:08:17 AM -28.1430 153.5000 North 286 329 20,900 -1,662 Descending FlightAware ADS-B
Thu 07:08:42 AM -28.1069 153.4937 North 296 341 20,000 -2,700 Descending Aus ATC (RADAR)
Thu 07:08:57 AM -28.0880 153.4900 North 316 364 19,100 -2,400 Descending FlightAware ADS-B
Thu 07:09:17 AM -28.0560 153.4847 North 319 367 18,600 -2,000 Descending Aus ATC (RADAR)
Thu 07:09:42 AM -28.0240 153.4780 North 325 374 17,600 -1,745 Descending FlightAware ADS-B
Thu 07:10:12 AM -27.9746 153.4700 North 325 374 17,000 -1,733 Descending Aus ATC (RADAR)
Thu 07:10:27 AM -27.9550 153.4660 North 324 373 16,300 -1,714 Descending FlightAware ADS-B
Thu 07:10:47 AM -27.9228 153.4613 North 325 374 16,000 -1,543 Descending Aus ATC (RADAR)
Thu 07:11:02 AM -27.9020 153.4570 North 326 375 15,400 -1,440 Descending FlightAware ADS-B
Thu 07:11:37 AM -27.8481 153.4478 North 325 374 14,800 -1,467 Descending Aus ATC (RADAR)
Thu 07:11:47 AM -27.8360 153.4450 North 323 372 14,300 -1,440 Descending FlightAware ADS-B
Thu 07:12:27 AM -27.7741 153.4350 North 323 372 13,600 -1,333 Descending Aus ATC (RADAR)
Thu 07:12:32 AM -27.7690 153.4340 North 321 369 13,300 -1,650 Descending FlightAware ADS-B
Thu 07:13:07 AM -27.7180 153.4250 351° North 315 362 12,500 -1,029 Descending FlightAware ADS-B
Thu 07:13:42 AM -27.6662 153.4157 351° North 310 357 12,100 -1,200 Descending Aus ATC (RADAR)
Thu 07:13:57 AM -27.6470 153.4120 351° North 305 351 11,500 -1,560 Descending FlightAware ADS-B
Thu 07:14:32 AM -27.5969 153.4021 351° North 304 350 10,800 -1,500 Descending Aus ATC (RADAR)
Thu 07:14:37 AM -27.5930 153.4010 351° North 297 342 10,500 -1,800 Descending FlightAware ADS-B
Thu 07:15:02 AM -27.5590 153.3950 351° North 296 341 9,900 -1,500 Descending FlightAware ADS-B
Thu 07:15:17 AM -27.5380 153.3910 350° North 295 339 9,500 -1,200 Descending FlightAware ADS-B
Thu 07:15:32 AM -27.5162 153.3861 350° North 296 341 9,300 -1,600 Descending Aus ATC (RADAR)
Thu 07:15:47 AM -27.4980 153.3830 350° North 292 336 8,700 -1,920 Descending FlightAware ADS-B
Thu 07:15:57 AM -27.4840 153.3800 349° North 291 335 8,500 -1,500 Descending FlightAware ADS-B
Thu 07:16:27 AM -27.4440 153.3730 351° North 292 336 7,700 -1,500 Descending FlightAware ADS-B
Thu 07:16:57 AM -27.4050 153.3650 350° North 289 333 7,000 -1,418 Descending FlightAware ADS-B
Thu 07:17:22 AM -27.3710 153.3590 351° North 289 333 6,400 -1,418 Descending FlightAware ADS-B
Thu 07:17:52 AM -27.3360 153.3520 350° North 286 329 5,700 -1,091 Descending FlightAware ADS-B
Thu 07:18:17 AM -27.3000 153.3450 350° North 275 316 5,400 -873 Descending FlightAware ADS-B
Thu 07:18:47 AM -27.2640 153.3360 347° North 267 307 4,900 -889 Descending FlightAware ADS-B
Thu 07:19:11 AM -27.2370 153.3148 347° North 265 305 4,600 -1,200 Descending Aus ATC (RADAR)
Thu 07:19:12 AM -27.2380 153.3150 347° North 268 308 4,400 -1,742 Descending FlightAware ADS-B
Thu 07:19:42 AM -27.2110 153.2890 319° Northwest 271 312 3,700 -1,200 Descending FlightAware ADS-B
Thu 07:19:57 AM -27.2070 153.2680 282° West 257 296 3,500 -600 Descending FlightAware ADS-B
Thu 07:20:22 AM -27.2100 153.2360 264° West 233 268 3,300 -600 Descending FlightAware ADS-B
Thu 07:20:37 AM -27.2190 153.2230 232° Southwest 202 232 3,100 -1,000 Descending FlightAware ADS-B
Thu 07:20:52 AM -27.2320 153.2150 209° Southwest 191 220 2,800 -1,000 Descending FlightAware ADS-B
Thu 07:21:07 AM -27.2430 153.2090 206° Southwest 187 215 2,600 -900 Descending FlightAware ADS-B
Thu 07:21:32 AM -27.2610 153.1990 206° Southwest 180 207 2,200 -982 Descending FlightAware ADS-B
Thu 07:22:02 AM -27.2840 153.1860 207° Southwest 175 201 1,700 -933 Descending FlightAware ADS-B
Thu 07:22:17 AM -27.2950 153.1800 206° Southwest 166 191 1,500 -800 Descending FlightAware ADS-B
Thu 07:22:47 AM -27.3140 153.1690 207° Southwest 148 170 1,100 -764 Descending FlightAware ADS-B
Thu 07:23:12 AM -27.3290 153.1610 205° Southwest 138 159 800 -750 Descending FlightAware ADS-B
Thu 07:23:27 AM -27.3370 153.1560 209° Southwest 134 154 600 -800 Descending FlightAware ADS-B
Thu 07:23:57 AM -27.3530 153.1460 209° Southwest 135 155 200 -750 Descending FlightAware ADS-B
Thu 07:24:07 AM -27.3600 153.1430 201° Southwest 134 154 100 -600 Descending FlightAware ADS-B
Thu 07:24:37 AM -27.3760 153.1340 207° Southwest 139 160 -200 Descending FlightAware ADS-B
Thu 07:25:02 AM -27.3870 153.1270 209° Southwest 59 68  Level FlightAware ADS-B
Thu 07:25:17 AM -27.3890 153.1250 222° Southwest 34 39  Level FlightAware ADS-B
Thu 07:25:32 AM -27.3910 153.1240 204° Southwest 27 31  Level FlightAware ADS-B
Thu 07:26:17 AM -27.3900 153.1210 291° West 12 14  Level FlightAware ADS-B
Thu 07:26:37 AM -27.3900 153.1200 270° West 10 12  Level FlightAware ADS-B

Login

Don't have an account? Register now (free) for customized features, flight alerts, and more!